sensor_id;sensor_type;location;lat;lon;timestamp;P1;durP1;ratioP1;P2;durP2;ratioP2
10313;SDS011;5202;49.138;10.090;2022-12-18T00:00:09;51.43;;;34.23;;
10313;SDS011;5202;49.138;10.090;2022-12-18T00:02:39;57.33;;;35.60;;
10313;SDS011;5202;49.138;10.090;2022-12-18T00:05:09;47.60;;;33.47;;
10313;SDS011;5202;49.138;10.090;2022-12-18T00:07:37;57.37;;;36.50;;
10313;SDS011;5202;49.138;10.090;2022-12-18T00:10:06;52.20;;;33.63;;
10313;SDS011;5202;49.138;10.090;2022-12-18T00:12:35;50.73;;;33.87;;
10313;SDS011;5202;49.138;10.090;2022-12-18T00:15:03;52.47;;;33.90;;
10313;SDS011;5202;49.138;10.090;2022-12-18T00:17:33;56.70;;;35.30;;
10313;SDS011;5202;49.138;10.090;2022-12-18T00:20:01;62.60;;;37.30;;
10313;SDS011;5202;49.138;10.090;2022-12-18T00:22:31;58.47;;;37.13;;
10313;SDS011;5202;49.138;10.090;2022-12-18T00:25:00;59.40;;;37.03;;
10313;SDS011;5202;49.138;10.090;2022-12-18T00:27:28;60.63;;;36.80;;
10313;SDS011;5202;49.138;10.090;2022-12-18T00:29:56;60.47;;;36.13;;
10313;SDS011;5202;49.138;10.090;2022-12-18T00:32:25;62.37;;;36.70;;
10313;SDS011;5202;49.138;10.090;2022-12-18T00:34:54;56.80;;;34.87;;
10313;SDS011;5202;49.138;10.090;2022-12-18T00:37:23;59.27;;;35.43;;
10313;SDS011;5202;49.138;10.090;2022-12-18T00:39:52;59.23;;;35.43;;
10313;SDS011;5202;49.138;10.090;2022-12-18T00:42:21;57.83;;;35.57;;
10313;SDS011;5202;49.138;10.090;2022-12-18T00:45:07;52.47;;;31.47;;
10313;SDS011;5202;49.138;10.090;2022-12-18T00:47:38;57.53;;;33.67;;
10313;SDS011;5202;49.138;10.090;2022-12-18T00:50:07;56.53;;;32.20;;
10313;SDS011;5202;49.138;10.090;2022-12-18T00:52:36;52.27;;;31.13;;
10313;SDS011;5202;49.138;10.090;2022-12-18T00:55:10;54.30;;;29.90;;
10313;SDS011;5202;49.138;10.090;2022-12-18T00:57:39;58.70;;;33.63;;
10313;SDS011;5202;49.138;10.090;2022-12-18T01:00:08;49.23;;;29.70;;
10313;SDS011;5202;49.138;10.090;2022-12-18T01:02:40;48.60;;;29.57;;
10313;SDS011;5202;49.138;10.090;2022-12-18T01:05:09;49.13;;;28.77;;
10313;SDS011;5202;49.138;10.090;2022-12-18T01:07:41;47.30;;;27.23;;
10313;SDS011;5202;49.138;10.090;2022-12-18T01:10:11;50.97;;;30.27;;
10313;SDS011;5202;49.138;10.090;2022-12-18T01:12:40;50.13;;;29.10;;
10313;SDS011;5202;49.138;10.090;2022-12-18T01:15:09;47.63;;;27.80;;
10313;SDS011;5202;49.138;10.090;2022-12-18T01:17:39;50.30;;;26.30;;
10313;SDS011;5202;49.138;10.090;2022-12-18T01:20:09;53.20;;;25.83;;
10313;SDS011;5202;49.138;10.090;2022-12-18T01:22:39;47.30;;;26.80;;
10313;SDS011;5202;49.138;10.090;2022-12-18T01:25:08;38.93;;;22.10;;
10313;SDS011;5202;49.138;10.090;2022-12-18T01:27:37;48.67;;;25.83;;
10313;SDS011;5202;49.138;10.090;2022-12-18T01:30:06;44.70;;;25.27;;
10313;SDS011;5202;49.138;10.090;2022-12-18T01:32:36;41.87;;;23.53;;
10313;SDS011;5202;49.138;10.090;2022-12-18T01:35:05;45.70;;;24.30;;
10313;SDS011;5202;49.138;10.090;2022-12-18T01:37:34;43.10;;;24.47;;
10313;SDS011;5202;49.138;10.090;2022-12-18T01:40:03;42.97;;;23.13;;
10313;SDS011;5202;49.138;10.090;2022-12-18T01:42:33;47.40;;;24.10;;
10313;SDS011;5202;49.138;10.090;2022-12-18T01:45:04;41.53;;;23.17;;
10313;SDS011;5202;49.138;10.090;2022-12-18T01:47:50;44.60;;;22.90;;
10313;SDS011;5202;49.138;10.090;2022-12-18T01:50:21;42.37;;;22.87;;
10313;SDS011;5202;49.138;10.090;2022-12-18T01:52:53;44.73;;;23.37;;
10313;SDS011;5202;49.138;10.090;2022-12-18T01:55:25;42.30;;;22.87;;
10313;SDS011;5202;49.138;10.090;2022-12-18T01:57:57;44.50;;;23.63;;
10313;SDS011;5202;49.138;10.090;2022-12-18T02:00:28;41.07;;;23.43;;
10313;SDS011;5202;49.138;10.090;2022-12-18T02:02:58;42.17;;;22.17;;
10313;SDS011;5202;49.138;10.090;2022-12-18T02:05:29;48.90;;;24.03;;
10313;SDS011;5202;49.138;10.090;2022-12-18T02:08:10;45.17;;;24.37;;
10313;SDS011;5202;49.138;10.090;2022-12-18T02:10:46;47.03;;;23.70;;
10313;SDS011;5202;49.138;10.090;2022-12-18T02:13:24;50.27;;;25.57;;
10313;SDS011;5202;49.138;10.090;2022-12-18T02:16:05;48.70;;;23.17;;
10313;SDS011;5202;49.138;10.090;2022-12-18T02:18:43;43.97;;;23.90;;
10313;SDS011;5202;49.138;10.090;2022-12-18T02:21:19;45.57;;;23.27;;
10313;SDS011;5202;49.138;10.090;2022-12-18T02:23:56;46.13;;;23.40;;
10313;SDS011;5202;49.138;10.090;2022-12-18T02:26:40;42.33;;;22.07;;
10313;SDS011;5202;49.138;10.090;2022-12-18T02:29:15;43.73;;;23.03;;
10313;SDS011;5202;49.138;10.090;2022-12-18T02:31:47;42.10;;;22.40;;
10313;SDS011;5202;49.138;10.090;2022-12-18T02:34:21;44.13;;;21.97;;
10313;SDS011;5202;49.138;10.090;2022-12-18T02:36:53;44.90;;;23.50;;
10313;SDS011;5202;49.138;10.090;2022-12-18T02:39:23;46.23;;;23.23;;
10313;SDS011;5202;49.138;10.090;2022-12-18T02:42:08;40.27;;;20.33;;
10313;SDS011;5202;49.138;10.090;2022-12-18T02:44:42;47.83;;;22.17;;
10313;SDS011;5202;49.138;10.090;2022-12-18T02:47:15;44.50;;;23.43;;
10313;SDS011;5202;49.138;10.090;2022-12-18T02:49:49;44.03;;;21.77;;
10313;SDS011;5202;49.138;10.090;2022-12-18T02:53:00;45.37;;;21.80;;
10313;SDS011;5202;49.138;10.090;2022-12-18T02:55:43;42.53;;;21.50;;
10313;SDS011;5202;49.138;10.090;2022-12-18T02:58:28;44.83;;;22.43;;
10313;SDS011;5202;49.138;10.090;2022-12-18T03:01:09;46.00;;;23.30;;
10313;SDS011;5202;49.138;10.090;2022-12-18T03:03:45;41.80;;;21.57;;
10313;SDS011;5202;49.138;10.090;2022-12-18T03:06:21;42.03;;;21.17;;
10313;SDS011;5202;49.138;10.090;2022-12-18T03:08:54;45.00;;;22.60;;
10313;SDS011;5202;49.138;10.090;2022-12-18T03:11:29;42.97;;;21.53;;
10313;SDS011;5202;49.138;10.090;2022-12-18T03:14:20;48.73;;;23.43;;
10313;SDS011;5202;49.138;10.090;2022-12-18T03:16:52;40.83;;;22.47;;
10313;SDS011;5202;49.138;10.090;2022-12-18T03:19:24;43.50;;;23.23;;
10313;SDS011;5202;49.138;10.090;2022-12-18T03:21:57;47.10;;;24.33;;
10313;SDS011;5202;49.138;10.090;2022-12-18T03:24:40;50.77;;;24.80;;
10313;SDS011;5202;49.138;10.090;2022-12-18T03:27:11;47.10;;;23.20;;
10313;SDS011;5202;49.138;10.090;2022-12-18T03:29:45;44.53;;;23.37;;
10313;SDS011;5202;49.138;10.090;2022-12-18T03:32:23;50.00;;;23.03;;
10313;SDS011;5202;49.138;10.090;2022-12-18T03:34:58;43.97;;;22.70;;
10313;SDS011;5202;49.138;10.090;2022-12-18T03:37:34;44.83;;;22.03;;
10313;SDS011;5202;49.138;10.090;2022-12-18T03:40:03;46.57;;;23.00;;
10313;SDS011;5202;49.138;10.090;2022-12-18T03:42:36;46.30;;;23.23;;
10313;SDS011;5202;49.138;10.090;2022-12-18T03:45:18;40.47;;;21.57;;
10313;SDS011;5202;49.138;10.090;2022-12-18T03:47:54;44.13;;;22.10;;
10313;SDS011;5202;49.138;10.090;2022-12-18T03:50:36;41.03;;;21.80;;
10313;SDS011;5202;49.138;10.090;2022-12-18T03:53:18;42.50;;;21.67;;
10313;SDS011;5202;49.138;10.090;2022-12-18T03:55:57;40.27;;;21.07;;
10313;SDS011;5202;49.138;10.090;2022-12-18T03:58:48;42.53;;;21.33;;
10313;SDS011;5202;49.138;10.090;2022-12-18T04:01:23;41.43;;;20.97;;
10313;SDS011;5202;49.138;10.090;2022-12-18T04:03:59;45.67;;;22.47;;
10313;SDS011;5202;49.138;10.090;2022-12-18T04:06:32;38.73;;;20.90;;
10313;SDS011;5202;49.138;10.090;2022-12-18T04:09:03;46.53;;;23.60;;
10313;SDS011;5202;49.138;10.090;2022-12-18T04:11:37;48.90;;;22.13;;
10313;SDS011;5202;49.138;10.090;2022-12-18T04:14:05;43.30;;;21.77;;
10313;SDS011;5202;49.138;10.090;2022-12-18T04:16:41;41.80;;;22.10;;
10313;SDS011;5202;49.138;10.090;2022-12-18T04:19:12;45.03;;;23.33;;
10313;SDS011;5202;49.138;10.090;2022-12-18T04:21:43;46.17;;;22.57;;
10313;SDS011;5202;49.138;10.090;2022-12-18T04:24:13;43.43;;;22.67;;
10313;SDS011;5202;49.138;10.090;2022-12-18T04:26:50;43.97;;;23.03;;
10313;SDS011;5202;49.138;10.090;2022-12-18T04:29:25;46.13;;;24.27;;
10313;SDS011;5202;49.138;10.090;2022-12-18T04:31:55;45.93;;;23.77;;
10313;SDS011;5202;49.138;10.090;2022-12-18T04:34:26;44.10;;;22.93;;
10313;SDS011;5202;49.138;10.090;2022-12-18T04:36:54;49.80;;;24.93;;
10313;SDS011;5202;49.138;10.090;2022-12-18T04:39:24;51.70;;;24.77;;
10313;SDS011;5202;49.138;10.090;2022-12-18T04:41:55;45.13;;;22.37;;
10313;SDS011;5202;49.138;10.090;2022-12-18T04:44:23;44.73;;;22.90;;
10313;SDS011;5202;49.138;10.090;2022-12-18T04:46:52;46.60;;;22.10;;
10313;SDS011;5202;49.138;10.090;2022-12-18T04:49:22;42.47;;;21.60;;
10313;SDS011;5202;49.138;10.090;2022-12-18T04:51:51;37.97;;;20.07;;
10313;SDS011;5202;49.138;10.090;2022-12-18T04:54:19;41.43;;;20.67;;
10313;SDS011;5202;49.138;10.090;2022-12-18T04:56:47;42.80;;;21.87;;
10313;SDS011;5202;49.138;10.090;2022-12-18T04:59:16;38.50;;;20.50;;
10313;SDS011;5202;49.138;10.090;2022-12-18T05:04:42;46.40;;;23.00;;
10313;SDS011;5202;49.138;10.090;2022-12-18T05:07:10;43.00;;;21.57;;
10313;SDS011;5202;49.138;10.090;2022-12-18T05:09:39;44.70;;;22.17;;
10313;SDS011;5202;49.138;10.090;2022-12-18T05:12:07;44.07;;;22.43;;
10313;SDS011;5202;49.138;10.090;2022-12-18T05:14:35;42.33;;;21.43;;
10313;SDS011;5202;49.138;10.090;2022-12-18T05:17:03;47.90;;;23.33;;
10313;SDS011;5202;49.138;10.090;2022-12-18T05:19:32;42.63;;;22.63;;
10313;SDS011;5202;49.138;10.090;2022-12-18T05:22:01;45.47;;;22.50;;
10313;SDS011;5202;49.138;10.090;2022-12-18T05:24:30;50.80;;;23.63;;
10313;SDS011;5202;49.138;10.090;2022-12-18T05:26:58;44.47;;;21.60;;
10313;SDS011;5202;49.138;10.090;2022-12-18T05:29:26;45.30;;;22.00;;
10313;SDS011;5202;49.138;10.090;2022-12-18T05:31:55;41.97;;;20.83;;
10313;SDS011;5202;49.138;10.090;2022-12-18T05:34:23;44.03;;;22.03;;
10313;SDS011;5202;49.138;10.090;2022-12-18T05:36:51;43.80;;;21.70;;
10313;SDS011;5202;49.138;10.090;2022-12-18T05:39:21;44.37;;;22.67;;
10313;SDS011;5202;49.138;10.090;2022-12-18T05:41:49;45.10;;;21.20;;
10313;SDS011;5202;49.138;10.090;2022-12-18T05:44:17;40.30;;;21.10;;
10313;SDS011;5202;49.138;10.090;2022-12-18T05:46:46;45.63;;;21.30;;
10313;SDS011;5202;49.138;10.090;2022-12-18T05:49:14;44.63;;;21.10;;
10313;SDS011;5202;49.138;10.090;2022-12-18T05:51:42;43.20;;;21.00;;
10313;SDS011;5202;49.138;10.090;2022-12-18T05:54:11;45.47;;;22.37;;
10313;SDS011;5202;49.138;10.090;2022-12-18T05:56:41;42.83;;;20.33;;
10313;SDS011;5202;49.138;10.090;2022-12-18T05:59:14;42.63;;;20.63;;
10313;SDS011;5202;49.138;10.090;2022-12-18T06:01:42;42.70;;;20.30;;
10313;SDS011;5202;49.138;10.090;2022-12-18T06:04:10;43.83;;;19.83;;
10313;SDS011;5202;49.138;10.090;2022-12-18T06:06:39;42.87;;;19.87;;
10313;SDS011;5202;49.138;10.090;2022-12-18T06:09:07;45.67;;;20.70;;
10313;SDS011;5202;49.138;10.090;2022-12-18T06:11:36;45.00;;;21.73;;
10313;SDS011;5202;49.138;10.090;2022-12-18T06:14:06;46.97;;;20.80;;
10313;SDS011;5202;49.138;10.090;2022-12-18T06:16:34;42.63;;;21.07;;
10313;SDS011;5202;49.138;10.090;2022-12-18T06:19:03;49.57;;;21.03;;
10313;SDS011;5202;49.138;10.090;2022-12-18T06:21:33;43.90;;;21.80;;
10313;SDS011;5202;49.138;10.090;2022-12-18T06:24:02;44.57;;;20.77;;
10313;SDS011;5202;49.138;10.090;2022-12-18T06:26:30;50.87;;;22.80;;
10313;SDS011;5202;49.138;10.090;2022-12-18T06:28:59;46.27;;;21.40;;
10313;SDS011;5202;49.138;10.090;2022-12-18T06:31:29;47.53;;;21.57;;
10313;SDS011;5202;49.138;10.090;2022-12-18T06:33:57;52.00;;;22.93;;
10313;SDS011;5202;49.138;10.090;2022-12-18T06:36:26;47.67;;;20.97;;
10313;SDS011;5202;49.138;10.090;2022-12-18T06:38:57;48.77;;;21.53;;
10313;SDS011;5202;49.138;10.090;2022-12-18T06:41:26;47.23;;;21.87;;
10313;SDS011;5202;49.138;10.090;2022-12-18T06:43:54;45.83;;;21.03;;
10313;SDS011;5202;49.138;10.090;2022-12-18T06:46:25;57.63;;;23.97;;
10313;SDS011;5202;49.138;10.090;2022-12-18T06:48:55;47.00;;;19.70;;
10313;SDS011;5202;49.138;10.090;2022-12-18T06:51:23;49.87;;;22.53;;
10313;SDS011;5202;49.138;10.090;2022-12-18T06:53:52;47.93;;;21.30;;
10313;SDS011;5202;49.138;10.090;2022-12-18T06:56:21;53.90;;;23.57;;
10313;SDS011;5202;49.138;10.090;2022-12-18T06:58:52;53.37;;;23.13;;
10313;SDS011;5202;49.138;10.090;2022-12-18T07:01:21;46.67;;;21.13;;
10313;SDS011;5202;49.138;10.090;2022-12-18T07:04:01;50.17;;;21.30;;
10313;SDS011;5202;49.138;10.090;2022-12-18T07:06:29;49.23;;;21.77;;
10313;SDS011;5202;49.138;10.090;2022-12-18T07:08:58;49.40;;;22.17;;
10313;SDS011;5202;49.138;10.090;2022-12-18T07:11:26;48.80;;;21.23;;
10313;SDS011;5202;49.138;10.090;2022-12-18T07:13:54;52.27;;;22.03;;
10313;SDS011;5202;49.138;10.090;2022-12-18T07:16:27;51.97;;;21.90;;
10313;SDS011;5202;49.138;10.090;2022-12-18T07:18:55;50.93;;;21.90;;
10313;SDS011;5202;49.138;10.090;2022-12-18T07:21:25;51.07;;;21.50;;
10313;SDS011;5202;49.138;10.090;2022-12-18T07:23:53;53.13;;;22.77;;
10313;SDS011;5202;49.138;10.090;2022-12-18T07:26:22;55.23;;;22.00;;
10313;SDS011;5202;49.138;10.090;2022-12-18T07:28:50;50.97;;;21.97;;
10313;SDS011;5202;49.138;10.090;2022-12-18T07:31:22;46.97;;;21.27;;
10313;SDS011;5202;49.138;10.090;2022-12-18T07:33:51;57.70;;;22.93;;
10313;SDS011;5202;49.138;10.090;2022-12-18T07:36:20;54.40;;;23.30;;
10313;SDS011;5202;49.138;10.090;2022-12-18T07:38:50;50.90;;;21.70;;
10313;SDS011;5202;49.138;10.090;2022-12-18T07:41:19;46.40;;;21.47;;
10313;SDS011;5202;49.138;10.090;2022-12-18T07:43:48;51.63;;;22.30;;
10313;SDS011;5202;49.138;10.090;2022-12-18T07:46:16;49.83;;;22.57;;
10313;SDS011;5202;49.138;10.090;2022-12-18T07:48:45;54.57;;;23.47;;
10313;SDS011;5202;49.138;10.090;2022-12-18T07:51:22;50.73;;;22.00;;
10313;SDS011;5202;49.138;10.090;2022-12-18T07:53:51;53.70;;;22.47;;
10313;SDS011;5202;49.138;10.090;2022-12-18T07:56:20;52.73;;;21.93;;
10313;SDS011;5202;49.138;10.090;2022-12-18T07:58:54;52.27;;;22.40;;
10313;SDS011;5202;49.138;10.090;2022-12-18T08:01:23;44.73;;;21.13;;
10313;SDS011;5202;49.138;10.090;2022-12-18T08:03:52;50.43;;;22.13;;
10313;SDS011;5202;49.138;10.090;2022-12-18T08:06:20;49.33;;;20.83;;
10313;SDS011;5202;49.138;10.090;2022-12-18T08:08:51;51.10;;;22.67;;
10313;SDS011;5202;49.138;10.090;2022-12-18T08:11:20;45.47;;;20.73;;
10313;SDS011;5202;49.138;10.090;2022-12-18T08:13:50;48.40;;;20.30;;
10313;SDS011;5202;49.138;10.090;2022-12-18T08:16:19;45.63;;;21.07;;
10313;SDS011;5202;49.138;10.090;2022-12-18T08:18:48;44.37;;;21.10;;
10313;SDS011;5202;49.138;10.090;2022-12-18T08:21:20;50.70;;;21.53;;
10313;SDS011;5202;49.138;10.090;2022-12-18T08:23:55;52.03;;;22.17;;
10313;SDS011;5202;49.138;10.090;2022-12-18T08:26:25;46.63;;;21.27;;
10313;SDS011;5202;49.138;10.090;2022-12-18T08:28:56;43.83;;;20.50;;
10313;SDS011;5202;49.138;10.090;2022-12-18T08:31:28;45.13;;;19.30;;
10313;SDS011;5202;49.138;10.090;2022-12-18T08:33:58;40.07;;;17.73;;
10313;SDS011;5202;49.138;10.090;2022-12-18T08:36:26;42.47;;;18.40;;
10313;SDS011;5202;49.138;10.090;2022-12-18T08:38:55;42.73;;;18.83;;
10313;SDS011;5202;49.138;10.090;2022-12-18T08:41:25;45.20;;;18.00;;
10313;SDS011;5202;49.138;10.090;2022-12-18T08:43:54;35.30;;;16.37;;
10313;SDS011;5202;49.138;10.090;2022-12-18T08:46:41;35.90;;;16.80;;
10313;SDS011;5202;49.138;10.090;2022-12-18T08:49:11;38.67;;;16.97;;
10313;SDS011;5202;49.138;10.090;2022-12-18T08:51:40;35.73;;;16.60;;
10313;SDS011;5202;49.138;10.090;2022-12-18T08:54:10;38.23;;;16.63;;
10313;SDS011;5202;49.138;10.090;2022-12-18T08:56:39;41.10;;;17.37;;
10313;SDS011;5202;49.138;10.090;2022-12-18T08:59:08;37.23;;;16.67;;
10313;SDS011;5202;49.138;10.090;2022-12-18T09:01:44;39.30;;;16.97;;
10313;SDS011;5202;49.138;10.090;2022-12-18T09:04:17;36.07;;;16.03;;
10313;SDS011;5202;49.138;10.090;2022-12-18T09:06:46;38.33;;;15.17;;
10313;SDS011;5202;49.138;10.090;2022-12-18T09:09:15;37.40;;;16.30;;
10313;SDS011;5202;49.138;10.090;2022-12-18T09:11:44;42.23;;;17.17;;
10313;SDS011;5202;49.138;10.090;2022-12-18T09:14:12;43.03;;;17.60;;
10313;SDS011;5202;49.138;10.090;2022-12-18T09:16:40;38.40;;;15.63;;
10313;SDS011;5202;49.138;10.090;2022-12-18T09:19:09;36.47;;;15.67;;
10313;SDS011;5202;49.138;10.090;2022-12-18T09:21:37;37.27;;;15.93;;
10313;SDS011;5202;49.138;10.090;2022-12-18T09:24:13;36.77;;;15.80;;
10313;SDS011;5202;49.138;10.090;2022-12-18T09:26:43;38.50;;;16.23;;
10313;SDS011;5202;49.138;10.090;2022-12-18T09:29:13;38.20;;;17.57;;
10313;SDS011;5202;49.138;10.090;2022-12-18T09:31:44;39.10;;;16.40;;
10313;SDS011;5202;49.138;10.090;2022-12-18T09:34:12;37.47;;;16.70;;
10313;SDS011;5202;49.138;10.090;2022-12-18T09:36:41;35.50;;;15.90;;
10313;SDS011;5202;49.138;10.090;2022-12-18T09:39:09;36.67;;;16.77;;
10313;SDS011;5202;49.138;10.090;2022-12-18T09:41:42;35.53;;;16.33;;
10313;SDS011;5202;49.138;10.090;2022-12-18T09:44:16;38.27;;;15.80;;
10313;SDS011;5202;49.138;10.090;2022-12-18T09:46:59;36.57;;;16.53;;
10313;SDS011;5202;49.138;10.090;2022-12-18T09:49:36;34.97;;;16.27;;
10313;SDS011;5202;49.138;10.090;2022-12-18T09:52:11;35.40;;;15.67;;
10313;SDS011;5202;49.138;10.090;2022-12-18T09:54:48;33.70;;;16.90;;
10313;SDS011;5202;49.138;10.090;2022-12-18T09:57:23;34.57;;;16.87;;
10313;SDS011;5202;49.138;10.090;2022-12-18T09:59:53;37.90;;;16.83;;
10313;SDS011;5202;49.138;10.090;2022-12-18T10:02:24;40.33;;;17.60;;
10313;SDS011;5202;49.138;10.090;2022-12-18T10:07:43;37.63;;;16.47;;
10313;SDS011;5202;49.138;10.090;2022-12-18T10:10:25;37.37;;;16.97;;
10313;SDS011;5202;49.138;10.090;2022-12-18T10:13:05;39.67;;;16.70;;
10313;SDS011;5202;49.138;10.090;2022-12-18T10:15:54;39.87;;;16.07;;
10313;SDS011;5202;49.138;10.090;2022-12-18T10:18:42;40.40;;;17.30;;
10313;SDS011;5202;49.138;10.090;2022-12-18T10:21:30;31.87;;;15.43;;
10313;SDS011;5202;49.138;10.090;2022-12-18T10:24:10;34.53;;;15.13;;
10313;SDS011;5202;49.138;10.090;2022-12-18T10:26:45;29.23;;;14.40;;
10313;SDS011;5202;49.138;10.090;2022-12-18T10:29:16;28.37;;;14.47;;
10313;SDS011;5202;49.138;10.090;2022-12-18T10:31:45;37.00;;;15.20;;
10313;SDS011;5202;49.138;10.090;2022-12-18T10:34:13;33.83;;;14.93;;
10313;SDS011;5202;49.138;10.090;2022-12-18T10:36:42;32.50;;;13.90;;
10313;SDS011;5202;49.138;10.090;2022-12-18T10:39:14;37.23;;;17.00;;
10313;SDS011;5202;49.138;10.090;2022-12-18T10:41:43;32.03;;;14.37;;
10313;SDS011;5202;49.138;10.090;2022-12-18T10:44:15;36.27;;;15.33;;
10313;SDS011;5202;49.138;10.090;2022-12-18T10:46:47;34.23;;;17.07;;
10313;SDS011;5202;49.138;10.090;2022-12-18T10:49:19;32.97;;;15.57;;
10313;SDS011;5202;49.138;10.090;2022-12-18T10:51:51;33.17;;;15.07;;
10313;SDS011;5202;49.138;10.090;2022-12-18T10:54:35;38.20;;;16.43;;
10313;SDS011;5202;49.138;10.090;2022-12-18T10:57:14;34.63;;;15.17;;
10313;SDS011;5202;49.138;10.090;2022-12-18T10:59:51;36.57;;;14.87;;
10313;SDS011;5202;49.138;10.090;2022-12-18T11:02:27;38.23;;;14.73;;
10313;SDS011;5202;49.138;10.090;2022-12-18T11:05:03;30.97;;;15.67;;
10313;SDS011;5202;49.138;10.090;2022-12-18T11:07:55;36.97;;;16.63;;
10313;SDS011;5202;49.138;10.090;2022-12-18T11:10:27;37.20;;;16.43;;
10313;SDS011;5202;49.138;10.090;2022-12-18T11:13:09;29.93;;;14.27;;
10313;SDS011;5202;49.138;10.090;2022-12-18T11:15:47;33.00;;;15.43;;
10313;SDS011;5202;49.138;10.090;2022-12-18T11:18:17;32.63;;;15.13;;
10313;SDS011;5202;49.138;10.090;2022-12-18T11:20:51;31.03;;;14.47;;
10313;SDS011;5202;49.138;10.090;2022-12-18T11:23:24;38.63;;;15.73;;
10313;SDS011;5202;49.138;10.090;2022-12-18T11:25:55;33.27;;;15.43;;
10313;SDS011;5202;49.138;10.090;2022-12-18T11:28:26;33.67;;;15.17;;
10313;SDS011;5202;49.138;10.090;2022-12-18T11:31:11;34.30;;;14.93;;
10313;SDS011;5202;49.138;10.090;2022-12-18T11:33:49;38.80;;;15.33;;
10313;SDS011;5202;49.138;10.090;2022-12-18T11:36:50;32.50;;;14.43;;
10313;SDS011;5202;49.138;10.090;2022-12-18T11:39:23;34.47;;;14.33;;
10313;SDS011;5202;49.138;10.090;2022-12-18T11:42:00;35.17;;;15.73;;
10313;SDS011;5202;49.138;10.090;2022-12-18T11:44:38;28.50;;;14.80;;
10313;SDS011;5202;49.138;10.090;2022-12-18T11:47:19;31.40;;;14.70;;
10313;SDS011;5202;49.138;10.090;2022-12-18T11:49:55;39.83;;;17.20;;
10313;SDS011;5202;49.138;10.090;2022-12-18T11:52:30;31.10;;;15.37;;
10313;SDS011;5202;49.138;10.090;2022-12-18T11:55:05;35.00;;;15.40;;
10313;SDS011;5202;49.138;10.090;2022-12-18T11:57:42;35.97;;;17.13;;
10313;SDS011;5202;49.138;10.090;2022-12-18T12:00:21;34.33;;;14.83;;
10313;SDS011;5202;49.138;10.090;2022-12-18T12:03:01;36.10;;;16.17;;
10313;SDS011;5202;49.138;10.090;2022-12-18T12:05:51;34.33;;;16.13;;
10313;SDS011;5202;49.138;10.090;2022-12-18T12:08:34;37.00;;;16.50;;
10313;SDS011;5202;49.138;10.090;2022-12-18T12:11:16;41.87;;;17.80;;
10313;SDS011;5202;49.138;10.090;2022-12-18T12:13:53;38.53;;;15.53;;
10313;SDS011;5202;49.138;10.090;2022-12-18T12:16:37;35.50;;;15.90;;
10313;SDS011;5202;49.138;10.090;2022-12-18T12:19:18;44.03;;;19.53;;
10313;SDS011;5202;49.138;10.090;2022-12-18T12:22:00;37.93;;;16.90;;
10313;SDS011;5202;49.138;10.090;2022-12-18T12:24:39;34.97;;;16.13;;
10313;SDS011;5202;49.138;10.090;2022-12-18T12:27:24;36.20;;;17.43;;
10313;SDS011;5202;49.138;10.090;2022-12-18T12:30:04;41.03;;;17.43;;
10313;SDS011;5202;49.138;10.090;2022-12-18T12:32:54;37.60;;;16.47;;
10313;SDS011;5202;49.138;10.090;2022-12-18T12:35:38;31.00;;;15.67;;
10313;SDS011;5202;49.138;10.090;2022-12-18T12:38:18;40.87;;;17.40;;
10313;SDS011;5202;49.138;10.090;2022-12-18T12:40:53;42.43;;;17.60;;
10313;SDS011;5202;49.138;10.090;2022-12-18T12:43:32;37.37;;;15.87;;
10313;SDS011;5202;49.138;10.090;2022-12-18T12:46:15;35.40;;;16.40;;
10313;SDS011;5202;49.138;10.090;2022-12-18T12:48:48;35.63;;;16.07;;
10313;SDS011;5202;49.138;10.090;2022-12-18T12:51:21;43.03;;;17.83;;
10313;SDS011;5202;49.138;10.090;2022-12-18T12:53:53;34.87;;;15.60;;
10313;SDS011;5202;49.138;10.090;2022-12-18T12:56:26;36.33;;;15.77;;
10313;SDS011;5202;49.138;10.090;2022-12-18T12:59:06;31.93;;;15.77;;
10313;SDS011;5202;49.138;10.090;2022-12-18T13:04:47;34.33;;;15.60;;
10313;SDS011;5202;49.138;10.090;2022-12-18T13:07:29;33.83;;;15.37;;
10313;SDS011;5202;49.138;10.090;2022-12-18T13:13:01;35.70;;;15.67;;
10313;SDS011;5202;49.138;10.090;2022-12-18T13:15:33;37.63;;;16.30;;
10313;SDS011;5202;49.138;10.090;2022-12-18T13:18:13;37.50;;;16.33;;
10313;SDS011;5202;49.138;10.090;2022-12-18T13:20:47;33.53;;;15.80;;
10313;SDS011;5202;49.138;10.090;2022-12-18T13:23:30;33.07;;;15.53;;
10313;SDS011;5202;49.138;10.090;2022-12-18T13:29:01;32.47;;;16.30;;
10313;SDS011;5202;49.138;10.090;2022-12-18T13:34:29;32.87;;;15.43;;
10313;SDS011;5202;49.138;10.090;2022-12-18T13:43:32;29.03;;;13.17;;
10313;SDS011;5202;49.138;10.090;2022-12-18T13:46:19;31.90;;;13.90;;
10313;SDS011;5202;49.138;10.090;2022-12-18T13:48:53;33.97;;;15.00;;
10313;SDS011;5202;49.138;10.090;2022-12-18T13:51:25;35.60;;;16.53;;
10313;SDS011;5202;49.138;10.090;2022-12-18T13:53:56;34.17;;;15.97;;
10313;SDS011;5202;49.138;10.090;2022-12-18T13:56:29;34.20;;;15.30;;
10313;SDS011;5202;49.138;10.090;2022-12-18T13:59:05;34.87;;;15.43;;
10313;SDS011;5202;49.138;10.090;2022-12-18T14:01:42;32.57;;;15.20;;
10313;SDS011;5202;49.138;10.090;2022-12-18T14:04:17;37.00;;;15.90;;
10313;SDS011;5202;49.138;10.090;2022-12-18T14:06:52;32.80;;;15.83;;
10313;SDS011;5202;49.138;10.090;2022-12-18T14:09:25;34.30;;;15.23;;
10313;SDS011;5202;49.138;10.090;2022-12-18T14:11:59;30.27;;;13.97;;
10313;SDS011;5202;49.138;10.090;2022-12-18T14:14:47;35.30;;;15.80;;
10313;SDS011;5202;49.138;10.090;2022-12-18T14:17:21;35.40;;;14.63;;
10313;SDS011;5202;49.138;10.090;2022-12-18T14:19:51;38.73;;;14.33;;
10313;SDS011;5202;49.138;10.090;2022-12-18T14:22:20;34.60;;;14.63;;
10313;SDS011;5202;49.138;10.090;2022-12-18T14:25:05;37.80;;;15.60;;
10313;SDS011;5202;49.138;10.090;2022-12-18T14:27:45;31.83;;;14.90;;
10313;SDS011;5202;49.138;10.090;2022-12-18T14:30:25;33.17;;;16.33;;
10313;SDS011;5202;49.138;10.090;2022-12-18T14:33:00;31.70;;;14.57;;
10313;SDS011;5202;49.138;10.090;2022-12-18T14:35:30;39.27;;;16.73;;
10313;SDS011;5202;49.138;10.090;2022-12-18T14:38:15;36.10;;;15.17;;
10313;SDS011;5202;49.138;10.090;2022-12-18T14:40:53;34.83;;;15.93;;
10313;SDS011;5202;49.138;10.090;2022-12-18T14:43:25;35.00;;;15.87;;
10313;SDS011;5202;49.138;10.090;2022-12-18T14:45:55;38.03;;;15.13;;
10313;SDS011;5202;49.138;10.090;2022-12-18T14:48:30;41.87;;;16.60;;
10313;SDS011;5202;49.138;10.090;2022-12-18T14:51:05;37.43;;;16.20;;
10313;SDS011;5202;49.138;10.090;2022-12-18T14:53:40;33.70;;;14.63;;
10313;SDS011;5202;49.138;10.090;2022-12-18T14:56:20;36.00;;;16.67;;
10313;SDS011;5202;49.138;10.090;2022-12-18T14:58:53;38.30;;;15.77;;
10313;SDS011;5202;49.138;10.090;2022-12-18T15:01:25;38.23;;;16.60;;
10313;SDS011;5202;49.138;10.090;2022-12-18T15:03:56;30.23;;;14.60;;
10313;SDS011;5202;49.138;10.090;2022-12-18T15:07:12;43.13;;;17.87;;
10313;SDS011;5202;49.138;10.090;2022-12-18T15:10:00;43.07;;;15.67;;
10313;SDS011;5202;49.138;10.090;2022-12-18T15:12:33;39.47;;;16.87;;
10313;SDS011;5202;49.138;10.090;2022-12-18T15:15:05;41.07;;;16.13;;
10313;SDS011;5202;49.138;10.090;2022-12-18T15:18:10;38.10;;;16.83;;
10313;SDS011;5202;49.138;10.090;2022-12-18T15:20:44;38.53;;;16.83;;